Time;durP1;ratioP1;P1;durP2;ratioP2;P2;SDS_P1;SDS_P2;PMS_P1;PMS_P2;Temp;Humidity;BMP_temperature;BMP_pressure;BME280_temperature;BME280_humidity;BME280_pressure;Samples;Min_cycle;Max_cycle;Signal;HPM_P1;HPM_P2
2022/11/22 00:00:49;;;;;;;1.40;1.00;;;;;;;22.45;47.37;94369.50;4986546;28;20393;-60
2022/11/22 00:03:15;;;;;;;1.55;1.00;;;;;;;22.45;47.17;94357.88;5006569;28;20124;-61
2022/11/22 00:05:40;;;;;;;2.17;1.40;;;;;;;21.79;47.33;94264.94;5006635;28;20454;-63
2022/11/22 00:08:06;;;;;;;1.50;1.00;;;;;;;22.42;47.40;94376.00;4989307;28;20429;-62
2022/11/22 00:10:31;;;;;;;1.70;1.10;;;;;;;22.37;47.30;94357.00;4971674;28;20073;-61
2022/11/22 00:12:57;;;;;;;2.08;0.98;;;;;;;22.39;47.23;94368.13;4970842;28;20041;-63
2022/11/22 00:15:22;;;;;;;1.58;1.02;;;;;;;22.38;47.14;94363.94;5006399;28;20057;-60
2022/11/22 00:17:48;;;;;;;1.52;1.00;;;;;;;22.37;47.15;94378.78;4972878;28;20107;-63
2022/11/22 00:20:13;;;;;;;2.38;1.00;;;;;;;22.32;47.32;94371.44;4973094;28;20124;-61
2022/11/22 00:22:39;;;;;;;1.60;1.10;;;;;;;22.33;47.19;94378.38;4976193;28;20104;-61
2022/11/22 00:25:05;;;;;;;1.58;0.85;;;;;;;22.21;47.31;94360.75;4968283;28;20034;-62
2022/11/22 00:27:30;;;;;;;1.80;1.05;;;;;;;22.32;47.22;94371.44;4984839;28;20054;-62
2022/11/22 00:29:56;;;;;;;1.67;1.13;;;;;;;21.30;47.46;94225.63;4986796;28;20089;-62
2022/11/22 00:32:21;;;;;;;1.40;0.82;;;;;;;22.32;47.21;94371.44;4972745;28;20050;-61
2022/11/22 00:34:47;;;;;;;1.33;0.90;;;;;;;22.29;47.61;94372.47;4987256;28;20060;-61
2022/11/22 00:37:12;;;;;;;1.00;0.80;;;;;;;22.14;47.26;94355.84;4970119;28;20656;-62
2022/11/22 00:39:38;;;;;;;2.05;1.00;;;;;;;22.28;47.43;94371.00;4971297;28;20546;-63
2022/11/22 00:42:03;;;;;;;2.17;1.00;;;;;;;22.27;47.58;94371.53;4971629;28;20042;-61
2022/11/22 00:44:28;;;;;;;1.38;0.90;;;;;;;22.26;47.33;94368.06;4969304;28;20058;-61
2022/11/22 00:46:54;;;;;;;1.30;0.90;;;;;;;22.08;47.64;94347.06;5004417;28;20121;-61
2022/11/22 00:49:19;;;;;;;1.60;1.05;;;;;;;21.47;47.48;94256.03;4987421;28;20340;-63
2022/11/22 00:51:45;;;;;;;1.48;1.10;;;;;;;22.23;47.71;94374.53;4987324;28;20034;-63
2022/11/22 00:54:10;;;;;;;1.30;1.00;;;;;;;22.25;47.66;94368.59;4970553;28;20062;-62
2022/11/22 00:56:36;;;;;;;1.15;0.90;;;;;;;22.18;47.27;94366.44;4988015;28;20065;-62
2022/11/22 00:59:01;;;;;;;1.42;1.05;;;;;;;22.20;47.51;94372.84;4967550;28;20049;-60
2022/11/22 01:01:26;;;;;;;2.10;0.98;;;;;;;22.10;47.53;94352.69;4970335;28;20029;-63
2022/11/22 01:03:52;;;;;;;1.75;0.90;;;;;;;21.57;47.49;94276.16;4987592;28;20410;-63
2022/11/22 01:06:17;;;;;;;1.60;1.10;;;;;;;22.21;47.35;94371.63;4970682;28;20422;-63
2022/11/22 01:08:43;;;;;;;1.50;1.00;;;;;;;22.02;47.56;94376.31;4970900;28;20580;-63
2022/11/22 01:11:08;;;;;;;1.15;0.93;;;;;;;22.20;47.50;94378.28;4986978;28;20501;-64
2022/11/22 01:13:34;;;;;;;1.50;1.05;;;;;;;22.16;47.73;94369.66;4988442;28;20026;-63
2022/11/22 01:16:00;;;;;;;1.60;0.80;;;;;;;22.11;47.83;94367.78;4972457;28;20192;-61
2022/11/22 01:18:26;;;;;;;1.20;0.90;;;;;;;22.16;47.25;94372.38;4970344;28;20061;-62
2022/11/22 01:20:51;;;;;;;1.42;1.00;;;;;;;21.62;47.40;94283.47;4981914;28;20046;-61
2022/11/22 01:23:17;;;;;;;1.20;1.00;;;;;;;22.15;47.78;94376.38;4978027;28;20071;-60
2022/11/22 01:25:43;;;;;;;1.20;0.90;;;;;;;22.14;47.41;94366.75;5004596;28;20482;-61
2022/11/22 01:28:09;;;;;;;1.15;0.90;;;;;;;22.11;47.32;94384.09;4970836;28;20686;-62
2022/11/22 01:30:34;;;;;;;1.40;1.00;;;;;;;22.13;47.67;94370.69;4968704;28;20078;-62
2022/11/22 01:33:00;;;;;;;1.48;0.98;;;;;;;21.51;47.66;94272.78;4966791;28;20108;-61
2022/11/22 01:35:25;;;;;;;1.30;0.90;;;;;;;22.13;47.33;94369.97;4988239;28;20120;-61
2022/11/22 01:37:50;;;;;;;1.70;1.00;;;;;;;22.09;47.51;94353.97;5006113;28;20050;-60
2022/11/22 01:40:16;;;;;;;1.05;0.95;;;;;;;22.10;47.61;94349.97;5005605;28;20033;-62
2022/11/22 01:42:45;;;;;;;2.20;0.90;;;;;;;21.45;47.46;94253.81;5003866;28;20042;-61
2022/11/22 01:45:28;;;;;;;1.40;0.98;;;;;;;22.10;47.63;94360.84;4966925;28;20046;-61
2022/11/22 01:48:04;;;;;;;0.98;0.80;;;;;;;21.54;47.28;94283.34;4998047;28;20065;-62
2022/11/22 01:50:32;;;;;;;1.30;0.98;;;;;;;21.99;47.59;94347.44;4971460;28;20654;-60
2022/11/22 01:52:59;;;;;;;1.25;0.80;;;;;;;21.90;47.70;94330.00;5004952;28;20042;-62
2022/11/22 01:55:24;;;;;;;1.27;0.90;;;;;;;21.41;47.42;94263.47;4986887;28;20037;-62
2022/11/22 01:57:50;;;;;;;1.38;1.15;;;;;;;21.47;47.58;94273.03;4955584;28;20158;-62
2022/11/22 02:00:16;;;;;;;1.50;0.98;;;;;;;22.04;47.71;94352.03;5003954;28;20056;-61
2022/11/22 02:02:45;;;;;;;1.20;0.90;;;;;;;22.03;47.89;94358.75;4986274;28;20093;-61
2022/11/22 02:05:12;;;;;;;1.00;0.80;;;;;;;21.92;47.72;94349.28;4987219;28;20034;-63
2022/11/22 02:07:42;;;;;;;2.20;1.30;;;;;;;21.95;47.62;94354.41;4985468;28;20133;-63
2022/11/22 02:10:07;;;;;;;;;;;;;;;22.00;47.65;94362.50;4970505;28;20058;-63
2022/11/22 02:12:33;;;;;;;1.35;0.90;;;;;;;22.03;47.77;94366.91;4985364;28;19964;-61
2022/11/22 02:14:58;;;;;;;1.42;0.88;;;;;;;22.02;47.69;94370.88;5004459;28;20045;-61
2022/11/22 02:17:24;;;;;;;1.30;1.00;;;;;;;21.94;47.96;94375.44;4986650;28;20053;-63
2022/11/22 02:19:51;;;;;;;1.35;0.90;;;;;;;21.92;47.81;94358.88;4970903;28;20103;-61
2022/11/22 02:22:22;;;;;;;1.10;0.85;;;;;;;21.97;47.71;94370.94;4971098;28;20715;-61
2022/11/22 02:24:58;;;;;;;1.08;0.90;;;;;;;21.88;47.58;94346.09;5002091;28;20038;-61
2022/11/22 02:27:23;;;;;;;0.90;0.73;;;;;;;21.97;47.94;94357.34;4985546;28;20137;-62
2022/11/22 02:29:49;;;;;;;1.10;0.90;;;;;;;20.98;47.61;94211.25;4968482;28;20053;-61
2022/11/22 02:32:14;;;;;;;1.10;0.93;;;;;;;21.84;47.61;94342.94;4953462;28;20137;-61
2022/11/22 02:34:47;;;;;;;1.15;0.85;;;;;;;21.92;47.75;94360.16;4969762;28;20056;-62
2022/11/22 02:37:14;;;;;;;1.13;0.88;;;;;;;21.84;47.71;94348.38;4987598;28;20060;-63
2022/11/22 02:39:40;;;;;;;1.25;0.90;;;;;;;21.94;47.87;94364.56;4984642;28;20169;-63
2022/11/22 02:42:05;;;;;;;1.20;0.93;;;;;;;21.94;47.77;94363.81;4968556;28;20545;-61
2022/11/22 02:44:31;;;;;;;1.30;0.90;;;;;;;21.75;47.70;94329.72;4969004;28;20041;-63
2022/11/22 02:46:56;;;;;;;1.00;0.77;;;;;;;21.92;47.66;94352.00;4986411;28;20037;-61
2022/11/22 02:49:23;;;;;;;1.25;0.90;;;;;;;21.92;47.63;94354.72;4986310;28;20038;-62
2022/11/22 02:51:48;;;;;;;1.52;1.00;;;;;;;21.78;47.92;94328.69;4986858;28;20525;-62
2022/11/22 02:54:14;;;;;;;1.02;0.80;;;;;;;21.90;47.75;94351.75;4986439;28;20053;-62
2022/11/22 02:56:39;;;;;;;1.33;1.08;;;;;;;21.87;47.72;94348.09;4984949;28;20054;-64
2022/11/22 02:59:05;;;;;;;1.20;0.90;;;;;;;21.90;47.90;94351.75;4967708;28;20042;-62
2022/11/22 03:01:30;;;;;;;1.08;0.80;;;;;;;21.89;47.96;94353.03;4969663;28;20042;-61
2022/11/22 03:03:56;;;;;;;1.23;0.80;;;;;;;21.79;47.60;94341.03;5001963;28;20038;-61
2022/11/22 03:06:21;;;;;;;1.15;0.88;;;;;;;21.89;47.75;94355.75;4985381;28;20050;-62
2022/11/22 03:08:49;;;;;;;1.35;0.95;;;;;;;21.89;47.72;94344.88;4986390;28;20053;-61
2022/11/22 03:11:15;;;;;;;1.33;1.00;;;;;;;21.86;47.77;94346.63;4986013;28;20101;-61
2022/11/22 03:13:40;;;;;;;1.40;1.05;;;;;;;;;;5002645;28;20631;-61
2022/11/22 03:16:05;;;;;;;1.20;0.83;;;;;;;21.31;47.63;94254.22;4972653;28;20038;-61
2022/11/22 03:18:34;;;;;;;1.10;0.90;;;;;;;21.11;47.80;94230.31;4990195;28;20285;-64
2022/11/22 03:21:04;;;;;;;1.50;0.98;;;;;;;21.78;47.91;94345.00;4988155;28;20081;-63
2022/11/22 03:23:30;;;;;;;1.17;1.02;;;;;;;21.80;47.72;94339.81;4989139;28;20088;-62
2022/11/22 03:25:55;;;;;;;1.60;0.98;;;;;;;21.77;47.98;94335.41;4973673;28;20061;-61
2022/11/22 03:28:21;;;;;;;1.30;1.05;;;;;;;21.81;47.70;94344.72;4973722;28;20053;-61
2022/11/22 03:30:46;;;;;;;1.20;0.90;;;;;;;21.66;47.82;94327.41;5006725;28;20029;-62
2022/11/22 03:33:12;;;;;;;1.38;0.93;;;;;;;21.49;47.73;94288.84;4973796;28;20046;-62
2022/11/22 03:35:37;;;;;;;1.00;0.80;;;;;;;21.79;47.36;94338.31;4990064;28;20065;-64
2022/11/22 03:38:02;;;;;;;1.40;1.00;;;;;;;21.79;47.73;94330.19;4990928;28;20045;-61
2022/11/22 03:40:28;;;;;;;1.00;0.85;;;;;;;21.80;47.80;94337.09;4989810;28;20029;-63
2022/11/22 03:42:53;;;;;;;0.88;0.80;;;;;;;21.06;47.87;94220.25;5006977;28;20029;-62
2022/11/22 03:45:19;;;;;;;1.25;1.10;;;;;;;21.74;47.67;94318.13;4968323;28;20046;-65
2022/11/22 03:47:44;;;;;;;1.20;0.90;;;;;;;21.77;47.89;94344.28;4980366;28;20046;-63
2022/11/22 03:50:10;;;;;;;1.25;1.02;;;;;;;21.60;47.65;94313.88;4989329;28;20050;-64
2022/11/22 03:52:35;;;;;;;1.58;1.10;;;;;;;21.66;47.92;94327.41;4989412;28;20050;-63
2022/11/22 03:55:01;;;;;;;0.90;0.77;;;;;;;21.49;47.50;94321.44;4970208;28;20027;-60
2022/11/22 03:57:26;;;;;;;1.02;0.80;;;;;;;21.74;47.98;94355.44;5002225;28;20135;-61
2022/11/22 03:59:52;;;;;;;1.17;1.00;;;;;;;21.74;48.00;94356.19;4972088;28;20088;-62
2022/11/22 04:02:17;;;;;;;1.25;0.90;;;;;;;21.09;47.51;94257.22;4988070;28;20045;-61
2022/11/22 04:04:43;;;;;;;0.85;0.70;;;;;;;21.74;47.83;94355.44;5003940;28;20060;-60
2022/11/22 04:07:08;;;;;;;1.20;0.90;;;;;;;21.73;47.81;94359.41;4973221;28;20037;-65
2022/11/22 04:09:34;;;;;;;1.20;1.00;;;;;;;21.40;47.77;94319.03;5004820;28;20072;-61
2022/11/22 04:11:59;;;;;;;1.10;0.90;;;;;;;21.63;47.85;94344.72;4989280;28;20407;-62
2022/11/22 04:17:12;;;;;;;1.20;0.98;;;;;;;21.66;47.67;94370.88;4972664;28;20057;-63
2022/11/22 04:19:37;;;;;;;0.93;0.80;;;;;;;21.72;47.70;94374.22;4969097;28;20128;-62
2022/11/22 04:22:03;;;;;;;1.00;0.90;;;;;;;21.61;47.74;94349.94;5002586;28;20529;-62
2022/11/22 04:27:12;;;;;;;1.00;0.77;;;;;;;21.68;47.90;94368.38;5006938;28;20128;-61
2022/11/22 04:29:38;;;;;;;0.90;0.80;;;;;;;21.64;47.75;94370.63;5007160;28;20053;-64
2022/11/22 04:32:45;;;;;;;1.00;0.70;;;;;;;21.58;47.92;94359.09;4991661;28;20070;-63
2022/11/22 04:34:52;;;;;;;0.82;0.70;;;;;;;21.02;47.58;94284.94;4972559;28;20524;-60
2022/11/22 04:37:17;;;;;;;1.20;0.90;;;;;;;21.58;47.62;94386.28;4989154;28;20038;-60
2022/11/22 04:39:42;;;;;;;0.90;0.80;;;;;;;21.65;47.87;94380.25;4957092;28;20038;-61
2022/11/22 04:44:52;;;;;;;1.48;1.05;;;;;;;21.66;47.71;94381.75;4989648;28;20076;-64
2022/11/22 04:50:02;;;;;;;1.50;1.00;;;;;;;21.66;47.77;94393.34;4970279;28;20052;-61
2022/11/22 04:55:12;;;;;;;1.00;0.90;;;;;;;21.63;47.73;94407.22;5004993;28;20044;-61
2022/11/22 04:57:37;;;;;;;1.30;0.90;;;;;;;21.56;47.97;94399.63;4970157;28;20034;-61
2022/11/22 05:00:03;;;;;;;1.23;0.90;;;;;;;21.52;47.72;94388.31;4987306;28;20525;-62
2022/11/22 05:02:29;;;;;;;1.05;0.90;;;;;;;20.50;47.65;94242.34;4987769;28;20503;-60
2022/11/22 05:04:54;;;;;;;1.30;1.00;;;;;;;21.54;47.86;94402.13;4952427;28;20050;-61
2022/11/22 05:07:19;;;;;;;1.20;0.90;;;;;;;21.51;47.88;94408.59;4982616;28;20060;-62
2022/11/22 05:09:45;;;;;;;1.17;0.80;;;;;;;21.56;47.89;94405.06;4969812;28;20038;-62
2022/11/22 05:12:10;;;;;;;1.35;0.90;;;;;;;21.59;47.89;94414.91;4986744;28;20061;-63
2022/11/22 05:14:36;;;;;;;2.92;2.20;;;;;;;20.22;39.16;94418.09;4986510;28;20053;-61
2022/11/22 05:17:01;;;;;;;1.15;0.90;;;;;;;20.55;48.51;94413.16;5004823;28;20037;-62
2022/11/22 05:19:26;;;;;;;2.88;1.00;;;;;;;21.10;48.51;94418.84;4967669;28;20469;-61
2022/11/22 05:21:52;;;;;;;1.35;1.00;;;;;;;21.36;47.78;94429.22;4976399;28;20478;-63
2022/11/22 05:24:17;;;;;;;2.05;1.00;;;;;;;21.55;47.57;94409.78;4940103;28;20093;-64
2022/11/22 05:26:43;;;;;;;1.30;0.90;;;;;;;21.74;47.42;94407.81;4973910;28;20050;-61
2022/11/22 05:29:09;;;;;;;1.25;1.00;;;;;;;21.81;47.42;94422.78;4985863;28;20133;-62
2022/11/22 05:31:35;;;;;;;1.08;0.85;;;;;;;21.80;46.92;94402.31;4967881;28;20534;-61
2022/11/22 05:34:00;;;;;;;1.60;0.85;;;;;;;21.97;46.95;94428.78;4987381;28;20041;-61
2022/11/22 05:36:26;;;;;;;1.00;0.80;;;;;;;20.84;46.96;94248.91;4972988;28;20045;-61
2022/11/22 05:38:51;;;;;;;1.20;0.90;;;;;;;21.77;46.75;94370.72;4955649;28;20481;-62
2022/11/22 05:41:17;;;;;;;1.45;0.82;;;;;;;22.16;46.78;94417.88;4966618;28;20426;-62
2022/11/22 05:43:42;;;;;;;0.80;0.60;;;;;;;22.20;46.45;94391.13;4963615;28;20060;-61
2022/11/22 05:46:19;;;;;;;0.95;0.70;;;;;;;22.28;45.66;94387.31;5004072;28;20041;-62
2022/11/22 05:48:45;;;;;;;1.20;0.80;;;;;;;21.97;45.67;94324.72;4969627;28;20051;-63
2022/11/22 05:51:14;;;;;;;3.47;0.80;;;;;;;22.62;45.42;94410.06;4969982;28;20050;-62
2022/11/22 05:53:41;;;;;;;1.48;0.70;;;;;;;22.70;45.12;94410.91;4973535;28;20062;-61
2022/11/22 05:56:13;;;;;;;0.93;0.80;;;;;;;22.67;45.26;94411.97;4993904;28;20431;-59
2022/11/22 05:58:39;;;;;;;1.30;0.85;;;;;;;21.93;45.11;94281.53;4952361;28;20523;-61
2022/11/22 06:01:07;;;;;;;1.40;0.90;;;;;;;22.95;44.44;94405.56;4951482;28;20042;-60
2022/11/22 06:03:33;;;;;;;1.30;0.80;;;;;;;22.98;44.59;94398.34;4997331;28;20077;-60
2022/11/22 06:05:58;;;;;;;1.20;0.70;;;;;;;23.32;44.45;94413.59;4951865;28;20119;-63
2022/11/22 06:08:24;;;;;;;1.50;0.80;;;;;;;23.36;43.78;94400.38;4968774;28;20061;-61
2022/11/22 06:10:49;;;;;;;1.63;1.10;;;;;;;23.33;44.03;94434.13;4985537;28;20519;-61
2022/11/22 06:13:15;;;;;;;1.20;0.85;;;;;;;23.47;44.11;94421.97;4973268;28;20159;-61
2022/11/22 06:15:40;;;;;;;1.38;0.85;;;;;;;23.37;44.32;94429.09;4976801;28;20042;-64
2022/11/22 06:18:05;;;;;;;1.30;0.80;;;;;;;23.28;44.29;94423.34;4968400;28;20042;-62
2022/11/22 06:20:31;;;;;;;1.50;0.93;;;;;;;23.51;44.52;94444.19;4977691;28;20050;-62
2022/11/22 06:22:57;;;;;;;1.92;1.17;;;;;;;23.66;45.01;94428.06;4974506;28;20073;-62
2022/11/22 06:25:23;;;;;;;1.60;0.90;;;;;;;23.17;44.59;94326.19;4963253;28;20044;-61
2022/11/22 06:27:48;;;;;;;1.45;0.90;;;;;;;23.93;44.43;94420.09;4970156;28;20038;-62
2022/11/22 06:30:14;;;;;;;1.52;1.00;;;;;;;23.68;46.30;94381.97;4962185;28;20529;-61
2022/11/22 06:32:40;;;;;;;1.40;0.88;;;;;;;23.71;45.77;94320.94;4959364;28;20081;-62
2022/11/22 06:35:05;;;;;;;1.50;0.90;;;;;;;23.62;47.05;94340.44;4966220;28;20084;-63
2022/11/22 06:37:31;;;;;;;2.22;0.90;;;;;;;23.95;47.68;94423.03;4953827;28;20030;-62
2022/11/22 06:39:56;;;;;;;2.22;0.80;;;;;;;23.85;46.64;94429.44;5005682;28;20026;-60
2022/11/22 06:42:22;;;;;;;1.80;1.23;;;;;;;23.81;46.91;94406.47;4987143;28;20058;-60
2022/11/22 06:44:47;;;;;;;2.05;0.90;;;;;;;23.27;46.56;94349.03;5002683;28;20034;-62
2022/11/22 06:47:12;;;;;;;1.55;1.02;;;;;;;23.90;46.44;94442.97;4985828;28;20049;-65
2022/11/22 06:49:38;;;;;;;2.40;1.00;;;;;;;23.77;46.14;94431.34;4972292;28;20061;-60
2022/11/22 06:52:04;;;;;;;1.83;0.90;;;;;;;23.96;45.83;94446.31;4989499;28;20030;-62
2022/11/22 06:54:29;;;;;;;1.30;0.80;;;;;;;23.76;46.58;94420.94;5006365;28;20057;-63
2022/11/22 06:56:54;;;;;;;3.05;1.25;;;;;;;23.86;46.16;94454.72;4999847;28;20053;-62
2022/11/22 06:59:20;;;;;;;2.08;1.10;;;;;;;23.48;45.94;94385.28;4954934;28;20054;-61
2022/11/22 07:01:45;;;;;;;2.22;0.90;;;;;;;23.52;45.44;94396.63;4977288;28;20478;-62
2022/11/22 07:04:11;;;;;;;2.22;0.90;;;;;;;24.23;45.00;94453.19;5006189;28;20030;-62
2022/11/22 07:06:37;;;;;;;2.03;0.80;;;;;;;24.60;43.75;94441.97;4973743;28;20644;-62
2022/11/22 07:09:04;;;;;;;1.80;1.10;;;;;;;24.37;43.77;94392.59;4990477;28;20111;-60
2022/11/22 07:11:30;;;;;;;1.67;1.02;;;;;;;24.60;44.05;94442.72;4977051;28;20046;-61
2022/11/22 07:13:56;;;;;;;1.73;1.00;;;;;;;24.56;44.04;94436.84;4973355;28;20336;-61
2022/11/22 07:16:22;;;;;;;4.13;1.05;;;;;;;24.56;43.89;94447.06;4986993;28;20068;-60
2022/11/22 07:18:47;;;;;;;4.32;1.10;;;;;;;24.16;43.85;94377.44;4965769;28;20128;-62
2022/11/22 07:21:15;;;;;;;1.65;1.10;;;;;;;24.49;44.11;94437.50;4990536;28;20513;-59
2022/11/22 07:23:41;;;;;;;1.65;1.10;;;;;;;24.57;43.70;94443.03;5001875;28;20128;-61
2022/11/22 07:26:07;;;;;;;2.58;1.02;;;;;;;25.04;43.03;94439.69;4968707;28;20042;-62
2022/11/22 07:28:32;;;;;;;1.85;0.90;;;;;;;24.47;42.66;94349.22;4954765;28;20022;-63
2022/11/22 07:30:59;;;;;;;1.65;0.98;;;;;;;24.98;42.53;94439.06;4999859;28;20041;-60
2022/11/22 07:33:24;;;;;;;2.10;1.10;;;;;;;25.11;42.11;94425.38;4965581;28;20049;-64
2022/11/22 07:35:50;;;;;;;1.67;1.00;;;;;;;24.99;42.97;94429.66;5005026;28;20053;-60
2022/11/22 07:38:15;;;;;;;2.10;1.00;;;;;;;24.83;42.97;94400.69;4985096;28;20053;-64
2022/11/22 07:40:41;;;;;;;1.83;0.90;;;;;;;25.18;42.15;94413.75;4987796;28;20502;-60
2022/11/22 07:43:07;;;;;;;1.70;0.90;;;;;;;25.33;42.13;94419.34;4972321;28;20038;-60
2022/11/22 07:45:32;;;;;;;1.77;1.10;;;;;;;25.31;42.26;94394.56;5002902;28;20180;-62
2022/11/22 07:47:59;;;;;;;1.77;0.90;;;;;;;25.19;42.17;94393.38;4970304;28;20049;-62
2022/11/22 07:50:24;;;;;;;1.95;0.90;;;;;;;24.73;42.01;94324.53;4985720;28;20302;-63
2022/11/22 07:52:56;;;;;;;1.73;1.10;;;;;;;25.15;42.15;94403.91;5003942;28;20580;-63
2022/11/22 07:55:24;;;;;;;1.40;1.05;;;;;;;25.16;42.33;94421.78;5005431;28;20038;-62
2022/11/22 07:57:49;;;;;;;1.50;1.00;;;;;;;25.13;42.49;94433.78;5003444;28;20044;-63
2022/11/22 08:00:15;;;;;;;1.50;1.10;;;;;;;25.12;41.96;94421.38;4998783;28;20045;-62
2022/11/22 08:02:41;;;;;;;2.13;1.20;;;;;;;25.09;42.38;94427.91;4999639;28;20042;-61
2022/11/22 08:05:07;;;;;;;2.08;1.02;;;;;;;25.12;42.06;94426.84;4987621;28;20054;-61
2022/11/22 08:07:32;;;;;;;2.30;1.38;;;;;;;24.96;41.99;94403.38;4989297;28;20137;-63
2022/11/22 08:09:58;;;;;;;2.25;1.20;;;;;;;25.00;41.78;94409.25;4956511;28;20033;-62
2022/11/22 08:12:23;;;;;;;2.50;1.10;;;;;;;25.01;42.06;94405.25;4988899;28;20064;-60
2022/11/22 08:14:48;;;;;;;1.98;1.15;;;;;;;24.99;42.51;94401.59;4954802;28;20049;-62
2022/11/22 08:17:14;;;;;;;1.75;1.20;;;;;;;24.99;42.24;94407.03;4987222;28;20123;-61
2022/11/22 08:19:39;;;;;;;2.28;1.08;;;;;;;24.88;42.58;94397.09;4988716;28;20050;-61
2022/11/22 08:22:05;;;;;;;2.03;0.98;;;;;;;24.92;42.49;94413.91;4982553;28;20038;-62
2022/11/22 08:24:30;;;;;;;1.65;1.25;;;;;;;24.90;42.52;94418.41;4977378;28;20085;-60
2022/11/22 08:26:55;;;;;;;2.22;1.27;;;;;;;24.86;42.30;94394.19;4988172;28;20054;-61
2022/11/22 08:29:21;;;;;;;2.05;1.45;;;;;;;24.78;42.42;94386.44;4980760;28;20061;-64
2022/11/22 08:31:46;;;;;;;2.05;1.08;;;;;;;24.78;42.49;94408.28;4970037;28;20050;-62
2022/11/22 08:34:12;;;;;;;1.90;1.15;;;;;;;24.78;42.31;94400.09;4971240;28;20364;-62
2022/11/22 08:36:37;;;;;;;2.00;1.20;;;;;;;24.82;42.04;94393.03;4988129;28;20450;-62
2022/11/22 08:39:02;;;;;;;2.13;1.13;;;;;;;24.65;42.47;94357.22;5005968;28;20038;-63
2022/11/22 08:41:28;;;;;;;1.38;0.90;;;;;;;24.83;42.25;94395.25;5005745;28;20068;-62
2022/11/22 08:43:53;;;;;;;2.35;1.10;;;;;;;24.83;42.55;94378.84;4988431;28;20165;-64
2022/11/22 08:46:19;;;;;;;2.25;1.27;;;;;;;24.78;43.03;94370.06;4971359;28;20029;-61
2022/11/22 08:48:44;;;;;;;2.20;1.33;;;;;;;24.76;42.76;94373.31;4972934;28;20136;-61
2022/11/22 08:51:11;;;;;;;2.13;1.20;;;;;;;24.73;42.72;94354.56;4971687;28;20045;-62
2022/11/22 08:53:38;;;;;;;2.05;1.20;;;;;;;24.76;43.04;94361.69;4955508;28;20119;-63
2022/11/22 08:56:05;;;;;;;1.40;0.85;;;;;;;24.71;42.90;94359.81;4955660;28;20049;-62
2022/11/22 08:58:33;;;;;;;2.53;1.20;;;;;;;24.63;42.97;94359.72;5004926;28;20054;-63
2022/11/22 09:01:20;;;;;;;1.90;1.50;;;;;;;24.68;43.33;94352.66;5001092;28;20042;-62
2022/11/22 09:03:46;;;;;;;2.72;1.20;;;;;;;24.28;43.40;94296.81;4984578;28;20062;-62
2022/11/22 09:06:19;;;;;;;1.70;1.10;;;;;;;24.71;43.38;94355.09;4968061;28;20438;-63
2022/11/22 09:08:45;;;;;;;3.88;1.52;;;;;;;24.54;42.81;94329.44;4984826;28;20122;-62
2022/11/22 09:11:12;;;;;;;2.00;1.13;;;;;;;24.47;43.15;94333.59;4971387;28;20046;-61
2022/11/22 09:13:37;;;;;;;2.67;1.20;;;;;;;24.68;43.17;94342.50;4971502;28;20117;-61
2022/11/22 09:16:17;;;;;;;2.88;1.13;;;;;;;24.66;43.23;94363.41;5006399;28;20222;-60
2022/11/22 09:18:42;;;;;;;3.17;1.23;;;;;;;24.63;43.46;94346.06;4989841;28;20044;-60
2022/11/22 09:21:09;;;;;;;1.88;1.30;;;;;;;24.66;43.13;94341.56;4972073;28;20046;-62
2022/11/22 09:23:35;;;;;;;3.35;1.60;;;;;;;24.64;43.16;94355.03;4988180;28;20513;-62
2022/11/22 09:26:04;;;;;;;1.75;1.27;;;;;;;24.67;43.33;94359.41;4987206;28;20100;-60
2022/11/22 09:28:30;;;;;;;2.38;1.13;;;;;;;23.63;43.06;94189.22;4976364;28;20048;-61
2022/11/22 09:31:09;;;;;;;1.95;1.23;;;;;;;24.64;43.51;94349.56;4970816;28;20514;-60
2022/11/22 09:33:35;;;;;;;3.78;1.42;;;;;;;24.61;43.45;94342.44;4955866;28;20096;-63
2022/11/22 09:36:15;;;;;;;4.88;3.17;;;;;;;23.59;40.53;94336.03;4982128;28;20054;-63
2022/11/22 09:38:40;;;;;;;2.97;1.60;;;;;;;23.73;43.00;94270.06;4969495;28;20050;-63
2022/11/22 09:41:41;;;;;;;2.05;1.45;;;;;;;24.38;43.05;94344.25;4983552;28;20103;-62
2022/11/22 09:44:36;;;;;;;2.65;1.42;;;;;;;24.48;42.92;94331.56;4997501;28;20069;-63
2022/11/22 09:47:29;;;;;;;1.90;1.05;;;;;;;24.41;42.49;94313.16;4977477;28;20050;-65
2022/11/22 09:50:13;;;;;;;2.72;1.50;;;;;;;24.46;43.18;94331.38;4996288;28;20049;-64
2022/11/22 09:52:47;;;;;;;3.25;1.30;;;;;;;24.48;43.29;94326.88;5002030;28;20037;-64
2022/11/22 09:55:33;;;;;;;2.67;1.38;;;;;;;24.48;43.63;94334.31;5004082;28;20454;-62
2022/11/22 09:58:15;;;;;;;2.42;1.25;;;;;;;23.98;43.10;94247.41;5004645;28;20058;-64
2022/11/22 10:00:41;;;;;;;1.75;1.17;;;;;;;24.55;43.40;94303.63;4967597;28;20054;-61
2022/11/22 10:03:26;;;;;;;2.13;1.23;;;;;;;24.45;43.35;94294.44;4985812;28;20061;-61
2022/11/22 10:05:53;;;;;;;3.20;1.40;;;;;;;23.88;43.15;94210.97;4985809;28;20129;-62
2022/11/22 10:08:58;;;;;;;6.03;1.63;;;;;;;24.36;43.60;94292.16;4962860;28;20137;-61
2022/11/22 10:11:43;;;;;;;5.18;3.03;;;;;;;23.16;41.06;94332.91;4947351;28;20069;-64
2022/11/22 10:14:36;;;;;;;3.75;1.75;;;;;;;23.80;43.70;94293.94;4974257;28;20096;-61
2022/11/22 10:17:12;;;;;;;2.53;1.38;;;;;;;24.12;43.25;94283.56;4987196;28;20034;-63
2022/11/22 10:19:40;;;;;;;3.50;1.70;;;;;;;24.38;43.21;94300.56;4987480;28;20038;-62
2022/11/22 10:22:10;;;;;;;2.22;1.35;;;;;;;23.46;43.18;94115.31;4970818;28;20034;-61
2022/11/22 10:24:36;;;;;;;2.50;1.55;;;;;;;24.51;43.38;94275.91;4969022;28;20158;-64
2022/11/22 10:27:01;;;;;;;2.15;1.38;;;;;;;24.61;43.43;94263.25;4972955;28;20473;-62
2022/11/22 10:29:45;;;;;;;1.80;1.38;;;;;;;24.76;43.26;94255.91;4974039;28;20035;-61
2022/11/22 10:32:10;;;;;;;2.10;1.30;;;;;;;24.83;43.05;94253.22;4988491;28;20518;-67
2022/11/22 10:34:51;;;;;;;3.22;1.70;;;;;;;24.82;43.00;94250.31;5009394;28;20100;-66
2022/11/22 10:37:38;;;;;;;2.17;1.30;;;;;;;24.94;43.11;94255.66;4972018;28;20116;-63
2022/11/22 10:40:22;;;;;;;6.38;2.20;;;;;;;25.05;41.58;94246.44;5001058;28;20038;-64
2022/11/22 10:43:15;;;;;;;3.22;1.30;;;;;;;24.92;42.41;94236.34;5009106;28;20046;-64
2022/11/22 10:45:45;;;;;;;3.03;1.60;;;;;;;24.82;42.88;94240.81;4987981;28;20054;-63
2022/11/22 10:48:44;;;;;;;2.70;1.40;;;;;;;24.82;42.96;94246.28;4988094;28;20042;-61
2022/11/22 10:51:38;;;;;;;3.13;1.70;;;;;;;24.80;43.40;94244.63;4998862;28;20038;-62
2022/11/22 10:54:10;;;;;;;3.28;1.58;;;;;;;24.80;43.17;94237.19;4993528;28;20522;-62
2022/11/22 10:57:00;;;;;;;3.75;1.40;;;;;;;24.75;43.55;94223.66;5000309;28;20693;-64
2022/11/22 10:59:43;;;;;;;3.50;1.30;;;;;;;24.81;43.03;94216.06;4983859;28;20058;-62
2022/11/22 11:02:30;;;;;;;3.85;1.58;;;;;;;24.67;43.63;94233.81;4994689;28;20057;-62
2022/11/22 11:04:56;;;;;;;3.20;1.48;;;;;;;24.74;43.34;94233.13;5004717;28;20061;-66
2022/11/22 11:07:22;;;;;;;2.55;1.50;;;;;;;24.81;42.67;94224.25;4962313;28;20033;-62
2022/11/22 11:09:56;;;;;;;3.45;2.70;;;;;;;24.79;41.02;94240.47;4971994;28;20120;-62
2022/11/22 11:12:38;;;;;;;3.75;1.80;;;;;;;24.79;43.09;94216.59;4973061;28;20088;-61
2022/11/22 11:15:05;;;;;;;5.70;2.05;;;;;;;24.28;42.74;94083.97;4977169;28;20038;-62
2022/11/22 11:17:33;;;;;;;3.85;1.70;;;;;;;25.17;43.50;94221.03;4958945;28;20038;-62
2022/11/22 11:19:59;;;;;;;3.60;1.70;;;;;;;25.00;43.83;94226.22;4962132;28;20046;-61
2022/11/22 11:22:25;;;;;;;3.70;1.70;;;;;;;25.12;43.85;94230.09;4990271;28;20538;-63
2022/11/22 11:24:50;;;;;;;2.35;1.40;;;;;;;25.25;43.01;94221.78;4992377;28;20064;-64
2022/11/22 11:27:17;;;;;;;3.88;1.85;;;;;;;24.92;42.98;94151.66;4990556;28;20053;-62
2022/11/22 11:29:46;;;;;;;3.28;1.70;;;;;;;25.46;42.96;94211.47;4973862;28;20046;-64
2022/11/22 11:32:21;;;;;;;5.05;2.00;;;;;;;25.23;43.01;94191.53;4994274;28;20050;-62
2022/11/22 11:35:04;;;;;;;3.35;1.67;;;;;;;25.19;43.05;94223.22;4982589;28;20129;-62
2022/11/22 11:37:36;;;;;;;2.58;1.65;;;;;;;24.45;43.46;94103.38;4976632;28;20113;-63
2022/11/22 11:40:05;;;;;;;4.82;2.10;;;;;;;24.59;41.50;94189.38;4969450;28;20041;-69
2022/11/22 11:42:32;;;;;;;4.30;1.93;;;;;;;24.93;42.75;94177.72;4983077;28;20096;-63
2022/11/22 11:45:25;;;;;;;4.07;1.95;;;;;;;25.20;42.97;94198.09;4974571;28;20045;-62
2022/11/22 11:47:51;;;;;;;3.15;1.77;;;;;;;25.05;43.07;94176.16;4987794;28;20485;-61
2022/11/22 11:50:18;;;;;;;2.75;1.70;;;;;;;24.95;43.40;94188.09;4990202;28;20042;-62
2022/11/22 11:52:49;;;;;;;2.72;1.60;;;;;;;24.58;43.29;94119.66;4977179;28;20069;-62